createdAt,value
2022-12-01T21:14:52.657Z,0.04
2022-12-01T21:17:38.685Z,0.10
2022-12-01T21:20:40.466Z,0.10
2022-12-01T21:23:19.596Z,0.18
2022-12-01T21:25:57.716Z,0.22
2022-12-01T21:28:34.346Z,0.30
2022-12-01T21:31:17.380Z,0.30
2022-12-01T21:33:54.585Z,0.30
2022-12-01T21:36:36.086Z,0.40
2022-12-01T21:39:30.587Z,0.40
2022-12-01T21:42:26.300Z,0.40
2022-12-01T21:45:02.975Z,0.40
2022-12-01T21:47:39.386Z,0.48
2022-12-01T21:50:27.447Z,0.50
2022-12-01T21:53:09.977Z,0.50
2022-12-01T21:55:49.354Z,0.50
2022-12-01T21:58:38.660Z,0.50
2022-12-01T22:01:29.067Z,0.44
2022-12-01T22:04:17.132Z,0.40
2022-12-01T22:06:57.659Z,0.40
2022-12-01T22:09:37.522Z,0.38
2022-12-01T22:12:28.852Z,0.30
2022-12-01T22:15:29.224Z,0.30
2022-12-01T22:18:11.941Z,0.30
2022-12-01T22:20:47.811Z,0.30
2022-12-01T22:23:27.099Z,0.30
2022-12-01T22:26:03.094Z,0.30
2022-12-01T22:28:39.555Z,0.20
2022-12-01T22:31:22.909Z,0.20
2022-12-01T22:34:03.772Z,0.10
2022-12-01T22:36:39.979Z,0.10
2022-12-01T22:39:34.341Z,0.06
2022-12-01T22:42:23.320Z,0.00
2022-12-01T22:45:02.417Z,0.00
2022-12-01T22:47:38.925Z,0.00
2022-12-01T22:50:30.688Z,0.00
2022-12-01T22:53:18.127Z,0.00
2022-12-01T22:55:59.160Z,0.00
2022-12-01T22:58:42.325Z,0.00
2022-12-01T23:01:30.329Z,0.00
2022-12-01T23:04:26.642Z,0.02
2022-12-01T23:07:27.991Z,0.00
2022-12-01T23:10:12.082Z,0.00
2022-12-01T23:12:50.829Z,0.02
2022-12-01T23:15:36.537Z,0.00
2022-12-01T23:18:22.990Z,0.00
2022-12-01T23:21:01.271Z,0.00
2022-12-01T23:23:39.638Z,0.00
2022-12-01T23:26:15.514Z,0.00
2022-12-01T23:28:51.739Z,0.00
2022-12-01T23:31:28.623Z,0.00
2022-12-01T23:34:05.694Z,0.00
2022-12-01T23:36:42.549Z,0.00
2022-12-01T23:39:24.677Z,0.00
2022-12-01T23:42:01.614Z,-0.06
2022-12-01T23:44:45.714Z,-0.10
2022-12-01T23:47:26.488Z,-0.10
2022-12-01T23:50:07.939Z,-0.10
2022-12-01T23:52:44.700Z,-0.10
2022-12-01T23:55:27.178Z,-0.10
2022-12-01T23:58:04.508Z,-0.20
